Time;durP1;ratioP1;P1;durP2;ratioP2;P2;SDS_P1;SDS_P2;PMS_P1;PMS_P2;Temp;Humidity;BMP_temperature;BMP_pressure;BME280_temperature;BME280_humidity;BME280_pressure;Samples;Min_cycle;Max_cycle;Signal;HPM_P1;HPM_P2
2022/01/30 00:01:01;;;;;;;19.47;4.43;;;9.50;99.90;;;;;;5026350;28;20590;-23
2022/01/30 00:03:31;;;;;;;13.40;3.20;;;9.50;99.90;;;;;;5027449;28;20306;-23
2022/01/30 00:05:58;;;;;;;22.03;3.67;;;9.50;99.90;;;;;;5026798;28;20679;-23
2022/01/30 00:08:29;;;;;;;14.97;3.93;;;9.50;99.90;;;;;;5009580;28;20208;-23
2022/01/30 00:11:06;;;;;;;15.80;4.10;;;9.50;99.90;;;;;;5020394;28;20315;-23
2022/01/30 00:13:34;;;;;;;17.33;3.80;;;9.40;99.90;;;;;;5027264;28;20671;-23
2022/01/30 00:16:05;;;;;;;19.87;4.10;;;9.40;99.90;;;;;;5025997;28;20727;-23
2022/01/30 00:24:15;;;;;;;15.53;3.23;;;9.40;99.90;;;;;;5030586;28;20200;-23
2022/01/30 00:26:42;;;;;;;15.33;3.60;;;9.30;99.90;;;;;;5028530;28;20224;-23
2022/01/30 00:29:10;;;;;;;14.80;4.03;;;9.30;99.90;;;;;;5029809;28;20288;-23
2022/01/30 00:31:39;;;;;;;18.53;3.43;;;9.30;99.90;;;;;;5028202;28;20292;-23
2022/01/30 00:34:26;;;;;;;15.07;3.73;;;9.20;99.90;;;;;;5030254;28;20224;-23
2022/01/30 00:36:53;;;;;;;21.03;3.57;;;9.20;99.90;;;;;;5030089;28;20306;-23
2022/01/30 00:39:23;;;;;;;19.07;3.70;;;9.20;99.90;;;;;;5028465;28;20785;-23
2022/01/30 00:41:55;;;;;;;15.40;3.30;;;9.20;99.90;;;;;;5030015;28;20710;-23
2022/01/30 00:44:25;;;;;;;13.57;3.33;;;9.20;99.90;;;;;;5029815;28;20224;-23
2022/01/30 00:46:54;;;;;;;16.70;3.33;;;9.20;99.90;;;;;;5028030;28;20215;-23
2022/01/30 00:49:22;;;;;;;13.67;3.13;;;9.10;99.90;;;;;;5029736;28;20221;-23
2022/01/30 00:51:49;;;;;;;14.10;3.33;;;9.10;99.90;;;;;;5028310;28;20247;-23
2022/01/30 00:54:19;;;;;;;14.93;3.43;;;9.00;99.90;;;;;;5029401;28;20213;-23
2022/01/30 00:56:49;;;;;;;13.77;3.47;;;9.00;99.90;;;;;;5030308;28;20211;-23
2022/01/30 00:59:17;;;;;;;17.20;3.37;;;9.00;99.90;;;;;;5029078;28;20714;-25
2022/01/30 01:01:48;;;;;;;16.13;3.90;;;9.00;99.90;;;;;;5027812;28;20216;-25
2022/01/30 01:04:17;;;;;;;15.67;3.17;;;8.90;99.90;;;;;;5029791;28;20217;-25
2022/01/30 01:06:49;;;;;;;11.23;3.07;;;8.90;99.90;;;;;;5029851;28;20291;-25
2022/01/30 01:09:21;;;;;;;14.00;3.13;;;8.90;99.90;;;;;;5029507;28;20201;-25
2022/01/30 01:12:28;;;;;;;14.40;3.90;;;8.90;99.90;;;;;;5029643;28;20312;-25
2022/01/30 01:25:47;;;;;;;12.70;3.03;;;8.70;99.90;;;;;;5029414;28;20193;-25
2022/01/30 01:28:16;;;;;;;18.07;3.60;;;8.70;99.90;;;;;;5029156;28;20296;-25
2022/01/30 01:30:46;;;;;;;14.03;3.67;;;8.70;99.90;;;;;;5027666;28;20197;-25
2022/01/30 01:33:16;;;;;;;14.17;4.30;;;8.70;99.90;;;;;;5028942;28;20290;-25
2022/01/30 01:35:44;;;;;;;17.90;3.60;;;8.70;99.90;;;;;;5027424;28;20204;-25
2022/01/30 01:38:15;;;;;;;16.83;4.00;;;8.70;99.90;;;;;;5028899;28;20221;-26
2022/01/30 01:40:53;;;;;;;14.33;3.73;;;8.60;99.90;;;;;;5028702;28;20252;-26
2022/01/30 01:43:24;;;;;;;16.17;3.60;;;8.60;99.90;;;;;;5028991;28;20647;-26
2022/01/30 01:45:54;;;;;;;21.07;4.13;;;8.60;99.90;;;;;;5027873;28;20763;-26
2022/01/30 01:48:24;;;;;;;16.77;4.10;;;8.60;99.90;;;;;;5029032;28;20217;-26
2022/01/30 01:50:55;;;;;;;17.63;4.20;;;8.60;99.90;;;;;;5028554;28;20228;-26
2022/01/30 01:53:25;;;;;;;20.80;4.30;;;8.60;99.90;;;;;;5010961;28;20213;-26
2022/01/30 01:55:57;;;;;;;15.87;3.73;;;8.60;99.90;;;;;;5028917;28;20312;-26
2022/01/30 01:58:26;;;;;;;21.23;4.13;;;8.50;99.90;;;;;;5025483;28;20299;-26
2022/01/30 02:00:53;;;;;;;17.73;4.53;;;8.60;99.90;;;;;;5027375;28;20227;-26
2022/01/30 02:03:22;;;;;;;20.53;4.30;;;8.50;99.90;;;;;;5028415;28;20281;-26
2022/01/30 02:05:55;;;;;;;21.80;4.07;;;8.50;99.90;;;;;;5021114;28;20197;-26
2022/01/30 02:11:06;;;;;;;17.70;4.00;;;8.50;99.90;;;;;;5026236;28;20590;-26
2022/01/30 02:25:23;;;;;;;20.70;4.40;;;8.40;99.90;;;;;;5023511;28;20200;-26
2022/01/30 02:27:55;;;;;;;17.67;3.90;;;8.30;99.90;;;;;;5027568;28;20209;-26
2022/01/30 02:30:31;;;;;;;18.27;3.63;;;8.30;99.90;;;;;;5026553;28;20200;-26
2022/01/30 02:32:58;;;;;;;14.23;3.50;;;8.30;99.90;;;;;;5028168;28;20197;-26
2022/01/30 02:35:30;;;;;;;21.07;4.10;;;8.30;99.90;;;;;;5026411;28;20212;-26
2022/01/30 02:38:00;;;;;;;15.83;4.03;;;8.30;99.90;;;;;;5025938;28;20208;-26
2022/01/30 02:40:30;;;;;;;14.17;3.40;;;8.30;99.90;;;;;;5027357;28;20213;-26
2022/01/30 02:42:58;;;;;;;16.57;4.53;;;8.30;99.90;;;;;;5010823;28;20576;-26
2022/01/30 02:45:29;;;;;;;16.67;3.70;;;8.30;99.90;;;;;;5025484;28;20217;-26
2022/01/30 02:50:52;;;;;;;15.97;3.63;;;8.20;99.90;;;;;;5026837;28;20236;-26
2022/01/30 02:53:28;;;;;;;16.63;4.10;;;8.20;99.90;;;;;;5026731;28;20689;-26
2022/01/30 02:55:58;;;;;;;17.40;3.60;;;8.20;99.90;;;;;;5027582;28;20224;-26
2022/01/30 02:58:26;;;;;;;11.07;3.47;;;8.20;99.90;;;;;;5027620;28;20204;-26
2022/01/30 03:00:55;;;;;;;13.53;3.53;;;8.10;99.90;;;;;;5025839;28;20886;-26
2022/01/30 03:03:23;;;;;;;14.77;3.80;;;8.10;99.90;;;;;;5028165;28;20765;-26
2022/01/30 03:05:50;;;;;;;26.43;4.63;;;8.10;99.90;;;;;;5009870;28;20204;-26
2022/01/30 03:08:18;;;;;;;15.27;3.63;;;8.10;99.90;;;;;;5021631;28;20292;-26
2022/01/30 03:10:45;;;;;;;15.73;4.10;;;8.10;99.90;;;;;;5014466;28;20217;-26
2022/01/30 03:13:12;;;;;;;18.03;3.60;;;8.00;99.90;;;;;;5027717;28;20200;-26
2022/01/30 03:15:39;;;;;;;13.73;3.50;;;8.00;99.90;;;;;;5026427;28;20201;-26
2022/01/30 03:18:07;;;;;;;15.20;3.60;;;8.00;99.90;;;;;;5027828;28;20219;-26
2022/01/30 03:20:34;;;;;;;16.63;3.50;;;7.90;99.90;;;;;;5027272;28;20240;-26
2022/01/30 03:23:02;;;;;;;22.93;4.33;;;7.90;99.90;;;;;;5027372;28;20200;-24
2022/01/30 03:25:32;;;;;;;16.87;4.07;;;7.90;99.90;;;;;;5025932;28;20201;-24
2022/01/30 03:28:04;;;;;;;20.80;4.60;;;7.90;99.90;;;;;;5026227;28;20217;-24
2022/01/30 03:30:32;;;;;;;16.40;3.83;;;7.80;99.90;;;;;;5026215;28;20207;-24
2022/01/30 03:33:04;;;;;;;18.67;4.17;;;7.80;99.90;;;;;;5026014;28;20208;-24
2022/01/30 03:35:36;;;;;;;16.63;4.33;;;7.80;99.90;;;;;;5027146;28;20204;-24
2022/01/30 03:38:03;;;;;;;19.77;4.07;;;7.70;99.90;;;;;;5027867;28;20595;-25
2022/01/30 03:40:31;;;;;;;17.17;3.90;;;7.70;99.90;;;;;;5027096;28;20311;-24
2022/01/30 03:43:04;;;;;;;18.03;3.40;;;7.70;99.90;;;;;;5026926;28;20212;-24
2022/01/30 03:45:31;;;;;;;13.63;4.03;;;7.70;99.90;;;;;;5026633;28;20706;-26
2022/01/30 03:47:58;;;;;;;22.10;3.73;;;7.80;99.90;;;;;;5027742;28;20208;-26
2022/01/30 03:50:33;;;;;;;16.90;3.77;;;7.70;99.90;;;;;;5027599;28;20773;-26
2022/01/30 03:53:04;;;;;;;15.93;4.00;;;7.70;99.90;;;;;;5030416;28;20209;-26
2022/01/30 03:55:31;;;;;;;17.40;3.77;;;7.70;99.90;;;;;;5029506;28;20587;-26
2022/01/30 03:57:59;;;;;;;15.17;3.97;;;7.70;99.90;;;;;;5031225;28;20572;-26
2022/01/30 04:00:26;;;;;;;13.03;3.43;;;7.60;99.90;;;;;;5030043;28;20251;-27
2022/01/30 04:02:53;;;;;;;17.40;4.27;;;7.60;99.90;;;;;;5030390;28;20213;-26
2022/01/30 04:05:25;;;;;;;19.00;3.80;;;7.60;99.90;;;;;;5031004;28;20197;-26
2022/01/30 04:08:01;;;;;;;18.83;4.13;;;7.60;99.90;;;;;;5030529;28;20294;-26
2022/01/30 04:10:33;;;;;;;21.17;3.40;;;7.60;99.90;;;;;;5030871;28;20210;-26
2022/01/30 04:13:03;;;;;;;18.40;3.77;;;7.60;99.90;;;;;;5028674;28;20205;-26
2022/01/30 04:15:32;;;;;;;13.90;3.40;;;7.50;99.90;;;;;;5030165;28;20193;-26
2022/01/30 04:18:02;;;;;;;14.50;3.80;;;7.60;99.90;;;;;;5030545;28;20205;-26
2022/01/30 04:20:32;;;;;;;16.13;3.63;;;7.50;99.90;;;;;;5030069;28;20229;-26
2022/01/30 04:23:03;;;;;;;20.03;4.40;;;7.50;99.90;;;;;;5030437;28;20351;-26
2022/01/30 04:25:32;;;;;;;15.17;4.30;;;7.50;99.90;;;;;;5030842;28;20223;-26
2022/01/30 04:28:00;;;;;;;15.23;3.60;;;7.40;99.90;;;;;;5029044;28;20207;-26
2022/01/30 04:30:27;;;;;;;24.67;4.33;;;7.40;99.90;;;;;;5029517;28;20209;-26
2022/01/30 04:32:58;;;;;;;15.43;3.53;;;7.40;99.90;;;;;;5029840;28;20197;-26
2022/01/30 04:35:30;;;;;;;19.43;3.50;;;7.40;99.90;;;;;;5029564;28;20236;-26
2022/01/30 04:38:06;;;;;;;14.27;3.80;;;7.30;99.90;;;;;;5030325;28;20718;-26
2022/01/30 05:00:24;;;;;;;22.60;4.37;;;7.20;99.90;;;;;;5028462;28;20209;-26
2022/01/30 05:07:37;;;;;;;12.20;3.57;;;7.20;99.90;;;;;;5029621;28;20248;-26
2022/01/30 05:10:08;;;;;;;15.37;3.53;;;7.20;99.90;;;;;;5029257;28;20209;-26
2022/01/30 05:12:56;;;;;;;18.17;4.03;;;7.10;99.90;;;;;;5019158;28;20235;-26
2022/01/30 05:15:26;;;;;;;13.53;3.60;;;7.20;99.90;;;;;;5026571;28;20220;-26
2022/01/30 05:17:56;;;;;;;15.73;3.90;;;7.10;99.90;;;;;;5029937;28;20233;-26
2022/01/30 05:20:29;;;;;;;19.57;4.10;;;7.10;99.90;;;;;;5029511;28;20224;-26
2022/01/30 05:22:59;;;;;;;17.90;4.07;;;7.10;99.90;;;;;;5029013;28;20220;-26
2022/01/30 05:25:30;;;;;;;16.23;3.43;;;7.10;99.90;;;;;;5028101;28;20197;-26
2022/01/30 05:28:00;;;;;;;15.87;3.63;;;7.10;99.90;;;;;;5029233;28;20259;-26
2022/01/30 05:30:33;;;;;;;14.00;3.50;;;7.10;99.90;;;;;;5028672;28;20235;-26
2022/01/30 05:33:00;;;;;;;17.33;3.80;;;7.10;99.90;;;;;;5028771;28;20227;-26
2022/01/30 05:35:30;;;;;;;14.40;3.57;;;7.10;99.90;;;;;;5029200;28;20200;-27
2022/01/30 05:38:00;;;;;;;14.40;3.80;;;7.10;99.90;;;;;;5029069;28;20209;-25
2022/01/30 05:40:28;;;;;;;16.87;3.63;;;7.10;99.90;;;;;;5027514;28;20221;-25
2022/01/30 05:42:56;;;;;;;15.13;3.77;;;7.10;99.90;;;;;;5029189;28;20216;-25
2022/01/30 05:48:03;;;;;;;11.83;3.57;;;7.10;99.90;;;;;;5028526;28;20679;-26
2022/01/30 05:50:31;;;;;;;16.60;4.20;;;7.10;99.90;;;;;;5028796;28;20241;-25
2022/01/30 05:52:58;;;;;;;16.57;4.50;;;7.10;99.90;;;;;;5026731;28;20697;-25
2022/01/30 05:55:31;;;;;;;16.27;3.73;;;7.10;99.90;;;;;;5027589;28;20204;-26
2022/01/30 05:58:01;;;;;;;20.60;4.03;;;7.10;99.90;;;;;;5028109;28;20201;-25
2022/01/30 06:00:31;;;;;;;16.37;3.70;;;7.10;99.90;;;;;;5024171;28;20303;-25
2022/01/30 06:03:00;;;;;;;15.70;3.87;;;7.10;99.90;;;;;;5023499;28;20310;-25
2022/01/30 06:05:28;;;;;;;15.57;3.23;;;7.10;99.90;;;;;;5023990;28;20201;-25
2022/01/30 06:07:58;;;;;;;14.97;3.73;;;7.10;99.90;;;;;;5026874;28;20204;-25
2022/01/30 06:10:26;;;;;;;16.53;3.80;;;7.10;99.90;;;;;;5014588;28;20221;-25
2022/01/30 06:12:54;;;;;;;17.50;4.17;;;7.10;99.90;;;;;;5027376;28;20503;-25
2022/01/30 06:15:23;;;;;;;19.23;4.17;;;7.10;99.90;;;;;;5027310;28;20209;-25
2022/01/30 06:17:52;;;;;;;18.10;3.57;;;7.20;99.90;;;;;;5027891;28;20236;-25
2022/01/30 06:20:20;;;;;;;15.23;3.50;;;7.20;99.90;;;;;;5027916;28;20688;-25
2022/01/30 06:22:47;;;;;;;17.83;4.90;;;7.20;99.90;;;;;;5028259;28;20230;-25
2022/01/30 06:25:17;;;;;;;22.17;4.17;;;7.20;99.90;;;;;;5026236;28;20645;-26
2022/01/30 06:27:44;;;;;;;19.57;4.13;;;7.20;99.90;;;;;;5028218;28;20221;-25
2022/01/30 06:30:11;;;;;;;17.37;3.50;;;7.20;99.90;;;;;;5026227;28;20200;-25
2022/01/30 06:32:40;;;;;;;15.97;3.23;;;7.20;99.90;;;;;;5027443;28;20583;-26
2022/01/30 06:35:08;;;;;;;18.60;3.73;;;7.20;99.90;;;;;;5028251;28;20315;-25
2022/01/30 06:37:35;;;;;;;18.93;3.43;;;7.20;99.90;;;;;;5027907;28;20232;-25
2022/01/30 06:40:08;;;;;;;17.07;3.57;;;7.10;99.90;;;;;;5023158;28;20221;-25
2022/01/30 06:42:35;;;;;;;20.77;4.87;;;7.10;99.90;;;;;;5026017;28;20220;-25
2022/01/30 06:45:06;;;;;;;19.80;4.07;;;7.10;99.90;;;;;;5021387;28;20703;-25
2022/01/30 06:47:42;;;;;;;17.03;3.93;;;7.10;99.90;;;;;;5028585;28;20259;-25
2022/01/30 06:50:13;;;;;;;19.47;4.40;;;7.10;99.90;;;;;;5026014;28;20224;-26
2022/01/30 06:52:40;;;;;;;14.57;3.23;;;7.10;99.90;;;;;;5027551;28;20216;-25
2022/01/30 06:55:08;;;;;;;13.97;3.83;;;7.10;99.90;;;;;;5026062;28;20204;-25
2022/01/30 06:57:44;;;;;;;19.43;3.87;;;7.10;99.90;;;;;;5026017;28;20646;-25
2022/01/30 07:00:13;;;;;;;17.00;3.30;;;7.10;99.90;;;;;;5024525;28;20351;-25
2022/01/30 07:02:40;;;;;;;14.93;3.03;;;7.10;99.90;;;;;;5020410;28;20253;-25
2022/01/30 07:05:08;;;;;;;18.67;3.67;;;7.10;99.90;;;;;;5025888;28;20207;-26
2022/01/30 07:07:36;;;;;;;16.83;3.70;;;7.10;99.90;;;;;;5026153;28;20226;-26
2022/01/30 07:10:08;;;;;;;18.87;3.90;;;7.10;99.90;;;;;;5027333;28;20697;-25
2022/01/30 07:12:35;;;;;;;17.30;3.60;;;7.20;99.90;;;;;;5027767;28;20639;-25
2022/01/30 07:15:03;;;;;;;17.00;3.50;;;7.20;99.90;;;;;;5025320;28;20267;-25
2022/01/30 07:17:30;;;;;;;18.50;3.83;;;7.10;99.90;;;;;;5026850;28;20197;-25
2022/01/30 07:19:57;;;;;;;16.20;3.53;;;7.10;99.90;;;;;;5027718;28;20291;-25
2022/01/30 07:22:27;;;;;;;17.57;3.73;;;7.10;99.90;;;;;;5027894;28;20606;-25
2022/01/30 07:24:55;;;;;;;14.80;4.00;;;7.10;99.90;;;;;;5036878;28;20767;-25
2022/01/30 07:27:23;;;;;;;16.00;4.23;;;7.10;99.90;;;;;;5039697;28;20601;-25
2022/01/30 07:29:53;;;;;;;17.77;3.97;;;7.10;99.90;;;;;;5033488;28;20228;-26
2022/01/30 07:32:24;;;;;;;17.23;3.40;;;7.10;99.90;;;;;;5037376;28;20208;-25
2022/01/30 07:34:54;;;;;;;16.60;3.77;;;7.10;99.90;;;;;;5032608;28;20271;-26
2022/01/30 07:37:24;;;;;;;16.87;3.97;;;7.10;99.90;;;;;;5030462;28;20752;-25
2022/01/30 07:39:59;;;;;;;19.30;4.10;;;7.10;99.90;;;;;;5031427;28;20228;-25
2022/01/30 07:42:28;;;;;;;15.43;3.67;;;7.10;99.90;;;;;;5044032;28;20226;-25
2022/01/30 07:44:56;;;;;;;20.10;4.47;;;7.20;99.90;;;;;;5029780;28;20219;-25
2022/01/30 07:47:26;;;;;;;14.87;3.40;;;7.20;99.90;;;;;;5031109;28;20293;-25
2022/01/30 07:49:59;;;;;;;16.30;3.33;;;7.20;99.90;;;;;;5035795;28;20197;-25
2022/01/30 07:52:26;;;;;;;15.93;3.50;;;7.30;99.90;;;;;;5029742;28;20580;-25
2022/01/30 07:54:56;;;;;;;14.67;3.40;;;7.20;99.90;;;;;;5026505;28;20216;-25
2022/01/30 07:57:23;;;;;;;15.10;3.83;;;7.20;99.90;;;;;;5031081;28;20213;-25
2022/01/30 07:59:50;;;;;;;16.57;3.63;;;7.30;99.90;;;;;;5026535;28;20669;-25
2022/01/30 08:02:21;;;;;;;17.93;4.33;;;7.30;99.90;;;;;;5030593;28;20224;-25
2022/01/30 08:04:49;;;;;;;15.33;3.20;;;7.30;99.90;;;;;;5033864;28;20667;-25
2022/01/30 08:07:16;;;;;;;16.07;3.43;;;7.30;99.90;;;;;;5030504;28;20954;-25
2022/01/30 08:09:44;;;;;;;12.73;3.30;;;7.30;99.90;;;;;;5030802;28;20301;-25
2022/01/30 08:12:11;;;;;;;18.03;3.17;;;7.30;99.90;;;;;;5030356;28;20216;-25
2022/01/30 08:14:38;;;;;;;15.50;3.70;;;7.30;99.90;;;;;;5030805;28;20213;-25
2022/01/30 08:17:05;;;;;;;16.67;3.70;;;7.30;99.90;;;;;;5030032;28;20197;-25
2022/01/30 08:19:35;;;;;;;15.60;3.60;;;7.30;99.90;;;;;;5044677;28;20211;-25
2022/01/30 08:22:09;;;;;;;16.43;3.90;;;7.30;99.90;;;;;;5028260;28;20218;-25
2022/01/30 08:24:36;;;;;;;14.33;3.10;;;7.30;99.90;;;;;;5030401;28;20767;-25
2022/01/30 08:27:06;;;;;;;16.67;3.77;;;7.30;99.90;;;;;;5018926;28;20224;-25
2022/01/30 08:29:37;;;;;;;24.90;4.13;;;7.30;99.90;;;;;;5010614;28;20206;-25
2022/01/30 08:32:11;;;;;;;17.60;4.33;;;7.30;99.90;;;;;;5027739;28;20291;-25
2022/01/30 08:34:41;;;;;;;17.23;4.73;;;7.30;99.90;;;;;;5032296;28;20201;-25
2022/01/30 08:37:08;;;;;;;18.10;3.73;;;7.30;99.90;;;;;;5026572;28;20634;-25
2022/01/30 08:39:38;;;;;;;23.27;4.93;;;7.30;99.90;;;;;;5030430;28;20213;-25
2022/01/30 08:42:05;;;;;;;17.80;3.93;;;7.30;99.90;;;;;;5027623;28;20224;-25
2022/01/30 08:44:33;;;;;;;22.07;4.47;;;7.40;99.90;;;;;;5033871;28;20588;-24
2022/01/30 08:47:05;;;;;;;18.43;4.87;;;7.40;99.90;;;;;;5036087;28;20205;-23
2022/01/30 08:49:32;;;;;;;13.00;3.87;;;7.40;99.90;;;;;;5030520;28;20626;-23
2022/01/30 08:51:59;;;;;;;21.70;4.00;;;7.40;99.90;;;;;;5028811;28;20247;-24
2022/01/30 08:54:26;;;;;;;18.57;3.87;;;7.40;99.90;;;;;;5035847;28;20240;-24
2022/01/30 08:56:54;;;;;;;18.17;3.80;;;7.50;99.90;;;;;;5018673;28;20213;-23
2022/01/30 08:59:21;;;;;;;12.07;3.53;;;7.50;99.90;;;;;;5025380;28;20205;-25
2022/01/30 09:01:55;;;;;;;17.07;4.20;;;7.50;99.90;;;;;;5026234;28;20327;-25
2022/01/30 09:04:22;;;;;;;17.40;4.23;;;7.60;99.90;;;;;;5026731;28;20686;-25
2022/01/30 09:06:49;;;;;;;12.80;3.70;;;7.60;99.90;;;;;;5025104;28;20227;-26
2022/01/30 09:09:19;;;;;;;11.87;3.50;;;7.60;99.90;;;;;;5022922;28;20201;-25
2022/01/30 09:11:51;;;;;;;19.77;4.27;;;7.60;99.90;;;;;;5024569;28;20582;-26
2022/01/30 09:14:26;;;;;;;20.40;4.13;;;7.60;99.90;;;;;;5022386;28;20288;-25
2022/01/30 09:16:54;;;;;;;18.73;4.10;;;7.60;99.90;;;;;;5021792;28;20675;-26
2022/01/30 09:19:37;;;;;;;16.60;4.17;;;7.60;99.90;;;;;;5040507;28;20583;-25
2022/01/30 09:22:04;;;;;;;14.63;3.97;;;7.70;99.90;;;;;;5029689;28;20560;-25
2022/01/30 09:24:31;;;;;;;14.60;3.17;;;7.70;99.90;;;;;;5031675;28;20221;-26
2022/01/30 09:26:59;;;;;;;13.93;3.70;;;7.70;99.90;;;;;;5030585;28;20236;-25
2022/01/30 09:29:29;;;;;;;20.13;4.13;;;7.70;99.90;;;;;;5026447;28;20324;-25
2022/01/30 09:32:00;;;;;;;15.97;3.87;;;7.70;99.90;;;;;;5037595;28;20448;-27
2022/01/30 09:34:30;;;;;;;14.57;3.23;;;7.70;99.90;;;;;;5028956;28;20224;-25
2022/01/30 09:37:00;;;;;;;17.27;4.07;;;7.70;99.90;;;;;;5018327;28;20292;-25
2022/01/30 09:39:31;;;;;;;13.27;3.53;;;7.80;99.90;;;;;;5016954;28;20299;-26
2022/01/30 09:42:00;;;;;;;14.87;3.47;;;7.80;99.90;;;;;;5021155;28;20217;-26
2022/01/30 09:44:28;;;;;;;15.30;3.80;;;7.80;99.90;;;;;;5025017;28;20757;-25
2022/01/30 09:46:55;;;;;;;12.37;3.10;;;7.80;99.90;;;;;;5021364;28;20716;-25
2022/01/30 09:49:28;;;;;;;12.97;3.27;;;7.80;99.90;;;;;;5021162;28;20207;-25
2022/01/30 09:51:55;;;;;;;20.27;3.50;;;7.80;99.90;;;;;;5027939;28;20707;-25
2022/01/30 09:54:23;;;;;;;14.80;3.27;;;7.80;99.90;;;;;;5020402;28;20633;-25
2022/01/30 09:56:55;;;;;;;15.30;3.67;;;7.80;99.90;;;;;;5024176;28;20382;-25
2022/01/30 09:59:24;;;;;;;17.33;3.87;;;7.90;99.90;;;;;;5019226;28;20282;-26
2022/01/30 10:01:52;;;;;;;13.57;4.00;;;7.90;99.90;;;;;;5023651;28;20687;-27
2022/01/30 10:04:19;;;;;;;19.10;4.03;;;8.00;99.90;;;;;;5022681;28;20561;-25
2022/01/30 10:07:08;;;;;;;19.90;4.33;;;8.00;99.90;;;;;;5025726;28;20633;-25
2022/01/30 10:09:42;;;;;;;17.53;3.87;;;8.10;99.90;;;;;;5003486;28;20201;-26
2022/01/30 10:12:15;;;;;;;20.90;4.07;;;8.10;99.90;;;;;;5016924;28;20734;-25
2022/01/30 10:15:16;;;;;;;15.10;3.93;;;8.10;99.90;;;;;;5019136;28;20805;-25
2022/01/30 10:17:52;;;;;;;18.17;3.97;;;8.20;99.90;;;;;;5014894;28;20309;-26
2022/01/30 10:20:37;;;;;;;22.77;4.50;;;8.20;99.90;;;;;;5018490;28;20766;-25
2022/01/30 10:23:11;;;;;;;20.80;4.47;;;8.30;99.90;;;;;;5055910;28;20855;-26
2022/01/30 10:25:47;;;;;;;16.13;4.13;;;8.40;99.90;;;;;;5023413;28;20208;-25
2022/01/30 10:28:33;;;;;;;20.47;4.87;;;8.40;99.90;;;;;;5026259;28;20201;-25
2022/01/30 10:31:07;;;;;;;13.70;4.17;;;8.50;99.90;;;;;;5017822;28;21501;-26
2022/01/30 10:33:45;;;;;;;14.43;3.93;;;8.50;99.90;;;;;;5020067;28;20220;-25
2022/01/30 10:36:21;;;;;;;18.87;4.50;;;8.50;99.90;;;;;;5021102;28;20208;-26
2022/01/30 10:38:59;;;;;;;14.70;4.00;;;8.50;99.90;;;;;;5034567;28;20284;-25
2022/01/30 10:41:41;;;;;;;18.03;4.40;;;8.50;99.90;;;;;;5038814;28;20312;-25
2022/01/30 10:44:11;;;;;;;20.20;3.97;;;8.50;99.90;;;;;;5026041;28;20228;-25
2022/01/30 10:46:48;;;;;;;19.83;4.93;;;8.60;99.90;;;;;;5016888;28;20259;-25
2022/01/30 10:49:22;;;;;;;18.13;4.10;;;8.60;99.90;;;;;;5024148;28;20208;-26
2022/01/30 10:51:57;;;;;;;17.10;3.93;;;8.60;99.90;;;;;;5020698;28;20318;-25
2022/01/30 10:54:29;;;;;;;17.93;4.03;;;8.70;99.90;;;;;;5022462;28;20627;-25
2022/01/30 10:57:06;;;;;;;16.40;4.50;;;8.70;99.90;;;;;;5025801;28;20288;-25
2022/01/30 10:59:38;;;;;;;18.17;4.37;;;8.70;99.90;;;;;;5025355;28;20780;-25
2022/01/30 11:02:22;;;;;;;14.37;3.73;;;8.70;99.90;;;;;;5021954;28;20338;-25
2022/01/30 11:05:02;;;;;;;19.43;4.17;;;8.70;99.90;;;;;;5016240;28;20225;-25
2022/01/30 11:07:36;;;;;;;16.83;4.57;;;8.70;99.90;;;;;;5024414;28;20702;-26
2022/01/30 11:10:18;;;;;;;17.20;4.20;;;8.70;99.90;;;;;;5027128;28;20196;-25
2022/01/30 11:12:57;;;;;;;21.03;5.03;;;8.70;99.90;;;;;;5017334;28;20201;-25
2022/01/30 11:18:00;;;;;;;19.87;4.63;;;8.80;99.90;;;;;;5022739;28;20204;-25
2022/01/30 11:20:30;;;;;;;22.47;4.30;;;8.80;99.90;;;;;;5022154;28;20231;-25
2022/01/30 11:23:03;;;;;;;20.23;4.37;;;8.80;99.90;;;;;;5023657;28;20224;-26
2022/01/30 11:25:35;;;;;;;16.70;4.20;;;8.90;99.90;;;;;;5024901;28;20735;-26
2022/01/30 11:28:04;;;;;;;17.20;4.27;;;8.90;99.90;;;;;;5025004;28;20197;-25
2022/01/30 11:30:50;;;;;;;14.37;4.03;;;8.90;99.90;;;;;;5027501;28;20488;-25
2022/01/30 11:33:19;;;;;;;15.67;3.97;;;9.00;99.90;;;;;;5028392;28;20299;-25
2022/01/30 11:35:50;;;;;;;18.83;4.30;;;9.00;99.90;;;;;;5022997;28;20688;-25
2022/01/30 11:38:20;;;;;;;13.97;3.73;;;9.10;99.90;;;;;;5023057;28;20224;-25
2022/01/30 11:41:16;;;;;;;16.53;3.60;;;9.20;99.90;;;;;;5017507;28;20205;-26
2022/01/30 11:44:18;;;;;;;23.37;4.00;;;9.30;99.90;;;;;;5013936;28;20225;-25
2022/01/30 11:46:51;;;;;;;13.37;3.43;;;9.40;99.90;;;;;;5024201;28;20201;-25
2022/01/30 11:49:19;;;;;;;12.13;3.60;;;9.40;99.90;;;;;;5022484;28;20204;-25
2022/01/30 11:51:55;;;;;;;20.00;3.57;;;9.40;99.90;;;;;;5021116;28;20706;-25
2022/01/30 11:54:45;;;;;;;16.53;4.33;;;9.50;99.90;;;;;;5024569;28;20192;-25
2022/01/30 11:57:18;;;;;;;20.10;3.63;;;9.50;99.90;;;;;;5026402;28;20224;-25
2022/01/30 11:59:49;;;;;;;17.23;3.93;;;9.50;99.90;;;;;;5023838;28;20208;-25
2022/01/30 12:02:30;;;;;;;17.13;3.90;;;9.60;99.90;;;;;;5025622;28;20546;-25
2022/01/30 12:05:02;;;;;;;18.17;3.83;;;9.60;99.90;;;;;;5025804;28;20679;-25
2022/01/30 12:07:45;;;;;;;15.30;3.90;;;9.60;99.90;;;;;;5023115;28;20204;-25
2022/01/30 12:10:26;;;;;;;10.93;3.03;;;9.50;99.90;;;;;;5023401;28;20639;-25
2022/01/30 12:13:02;;;;;;;13.80;3.47;;;9.50;99.90;;;;;;5022646;28;20209;-26
2022/01/30 12:15:46;;;;;;;19.47;3.67;;;9.60;99.90;;;;;;5023410;28;20254;-25
2022/01/30 12:18:36;;;;;;;16.73;3.90;;;9.60;99.90;;;;;;5026144;28;20822;-25
2022/01/30 12:21:11;;;;;;;13.07;3.47;;;9.70;99.90;;;;;;5023461;28;20205;-24
2022/01/30 12:23:40;;;;;;;17.37;3.80;;;9.70;99.90;;;;;;5030018;28;20213;-24
2022/01/30 12:26:15;;;;;;;13.90;3.20;;;9.70;99.90;;;;;;5027317;28;20267;-24
2022/01/30 12:28:42;;;;;;;14.53;3.70;;;9.80;99.90;;;;;;5025877;28;20201;-23
2022/01/30 12:31:34;;;;;;;19.07;3.80;;;9.80;99.90;;;;;;5028281;28;20215;-24
2022/01/30 12:34:09;;;;;;;15.40;3.20;;;9.80;99.90;;;;;;5030420;28;20215;-23
2022/01/30 12:36:50;;;;;;;12.00;3.30;;;9.80;99.90;;;;;;5017772;28;20209;-23
2022/01/30 12:39:22;;;;;;;13.47;3.10;;;9.90;99.90;;;;;;5035153;28;20219;-24
2022/01/30 12:41:52;;;;;;;10.37;2.93;;;9.90;99.90;;;;;;5039749;28;20679;-23
2022/01/30 12:44:21;;;;;;;11.80;3.30;;;9.90;99.90;;;;;;5031585;28;20706;-24
2022/01/30 12:46:54;;;;;;;17.00;4.10;;;9.90;99.90;;;;;;5044623;28;20196;-24
2022/01/30 12:49:26;;;;;;;17.87;3.30;;;10.00;99.90;;;;;;5029794;28;20250;-24
2022/01/30 12:51:57;;;;;;;13.07;3.20;;;10.00;99.90;;;;;;5031545;28;20229;-24
2022/01/30 12:54:37;;;;;;;19.67;4.37;;;10.00;99.90;;;;;;5026163;28;20240;-24
2022/01/30 12:57:09;;;;;;;20.60;3.43;;;9.90;99.90;;;;;;5031675;28;20196;-24
2022/01/30 12:59:37;;;;;;;16.60;3.57;;;9.90;99.90;;;;;;5030235;28;20232;-24
2022/01/30 13:02:12;;;;;;;17.40;3.83;;;9.90;99.90;;;;;;5029130;28;20213;-23
2022/01/30 13:04:39;;;;;;;14.27;3.80;;;9.90;99.90;;;;;;5033272;28;20205;-24
2022/01/30 13:07:14;;;;;;;16.53;3.77;;;9.90;99.90;;;;;;5029267;28;20197;-24
2022/01/30 13:09:44;;;;;;;16.03;4.03;;;9.90;99.90;;;;;;5031544;28;20209;-24
2022/01/30 13:12:17;;;;;;;17.70;4.40;;;9.90;99.90;;;;;;5027104;28;20223;-24
2022/01/30 13:14:44;;;;;;;16.03;3.40;;;9.90;99.90;;;;;;5031523;28;20197;-24
2022/01/30 13:17:17;;;;;;;20.43;3.70;;;9.90;99.90;;;;;;5029366;28;20201;-24
2022/01/30 13:19:44;;;;;;;16.13;4.13;;;9.90;99.90;;;;;;5031352;28;20316;-24
2022/01/30 13:22:29;;;;;;;13.60;3.60;;;9.90;99.90;;;;;;5028362;28;20200;-24
2022/01/30 13:24:58;;;;;;;12.03;3.47;;;9.90;99.90;;;;;;5031406;28;20219;-24
2022/01/30 13:27:25;;;;;;;13.10;3.20;;;9.90;99.90;;;;;;5029397;28;20663;-24
2022/01/30 13:29:55;;;;;;;10.53;3.33;;;9.90;99.90;;;;;;5037051;28;20717;-23
2022/01/30 13:32:26;;;;;;;17.90;3.90;;;9.90;99.90;;;;;;5026902;28;20201;-23
2022/01/30 13:34:59;;;;;;;17.87;4.53;;;9.90;99.90;;;;;;5031260;28;20205;-23
2022/01/30 13:37:37;;;;;;;19.33;3.87;;;9.90;99.90;;;;;;5027653;28;20201;-23
2022/01/30 13:40:19;;;;;;;20.40;3.60;;;9.90;99.90;;;;;;5031366;28;20218;-23
2022/01/30 13:48:02;;;;;;;23.97;4.73;;;9.90;99.90;;;;;;5009465;28;20712;-24
2022/01/30 13:50:40;;;;;;;17.87;4.37;;;9.90;99.90;;;;;;5029710;28;20311;-23
2022/01/30 13:53:20;;;;;;;17.97;3.57;;;9.80;99.90;;;;;;5023934;28;20556;-23
2022/01/30 13:56:00;;;;;;;12.00;3.37;;;9.90;99.90;;;;;;5027770;28;20711;-23
2022/01/30 13:58:50;;;;;;;15.87;3.37;;;9.80;99.90;;;;;;5012636;28;20342;-23
2022/01/30 14:01:22;;;;;;;16.90;4.30;;;9.80;99.90;;;;;;5032634;28;20201;-25
2022/01/30 14:04:04;;;;;;;13.10;3.60;;;9.80;99.90;;;;;;5026494;28;20232;-25
2022/01/30 14:06:36;;;;;;;13.83;3.17;;;9.80;99.90;;;;;;5031895;28;20279;-25
2022/01/30 14:09:25;;;;;;;15.93;3.60;;;9.80;99.90;;;;;;5028731;28;20210;-26
2022/01/30 14:12:06;;;;;;;16.03;3.50;;;9.80;99.90;;;;;;5028005;28;20651;-25
2022/01/30 14:14:39;;;;;;;20.07;3.97;;;9.70;99.90;;;;;;5026700;28;20576;-25
2022/01/30 14:17:14;;;;;;;17.97;4.30;;;9.70;99.90;;;;;;5025948;28;20205;-25